UWLL 252200Z 20004MPS CAVOK M14/M20 Q1042 R20/810355 NOSIG RMK QFE771/1028
QNH:(hPa/inHg/mmHg)1042 / 30.77 / 782
QFE:(hPa/inHg/mmHg)1026 / 30.30 / 770
Temperature-14
Dew Point-20
Visibility> 10000
WeatherCAVOK
Cloud Cover
Transition Altitude4000 ft.
Transition LevelFL50
SQUAWK